sensor_id;sensor_type;location;lat;lon;timestamp;P1;durP1;ratioP1;P2;durP2;ratioP2
17449;SDS011;8842;51.244;7.102;2022-09-13T00:07:12;8.60;;;8.20;;
17449;SDS011;8842;51.244;7.102;2022-09-13T00:17:28;8.70;;;8.30;;
17449;SDS011;8842;51.244;7.102;2022-09-13T00:27:43;8.67;;;8.27;;
17449;SDS011;8842;51.244;7.102;2022-09-13T00:38:01;8.60;;;8.20;;
17449;SDS011;8842;51.244;7.102;2022-09-13T00:43:08;8.50;;;8.10;;
17449;SDS011;8842;51.244;7.102;2022-09-13T00:48:17;8.80;;;8.40;;
17449;SDS011;8842;51.244;7.102;2022-09-13T00:53:25;8.70;;;8.30;;
17449;SDS011;8842;51.244;7.102;2022-09-13T01:03:45;8.13;;;7.73;;
17449;SDS011;8842;51.244;7.102;2022-09-13T01:14:08;8.70;;;8.20;;
17449;SDS011;8842;51.244;7.102;2022-09-13T01:24:35;8.50;;;8.10;;
17449;SDS011;8842;51.244;7.102;2022-09-13T01:35:27;8.70;;;8.30;;
17449;SDS011;8842;51.244;7.102;2022-09-13T01:40:45;8.60;;;8.20;;
17449;SDS011;8842;51.244;7.102;2022-09-13T01:46:03;8.40;;;8.00;;
17449;SDS011;8842;51.244;7.102;2022-09-13T01:56:21;8.50;;;8.10;;
17449;SDS011;8842;51.244;7.102;2022-09-13T02:06:39;8.70;;;8.20;;
17449;SDS011;8842;51.244;7.102;2022-09-13T02:11:47;8.50;;;8.10;;
17449;SDS011;8842;51.244;7.102;2022-09-13T02:17:01;8.60;;;8.20;;
17449;SDS011;8842;51.244;7.102;2022-09-13T02:27:20;8.70;;;8.20;;
17449;SDS011;8842;51.244;7.102;2022-09-13T02:37:39;8.13;;;7.73;;
17449;SDS011;8842;51.244;7.102;2022-09-13T02:47:59;8.03;;;7.63;;
17449;SDS011;8842;51.244;7.102;2022-09-13T02:53:09;8.10;;;7.70;;
17449;SDS011;8842;51.244;7.102;2022-09-13T02:58:30;8.27;;;7.87;;
17449;SDS011;8842;51.244;7.102;2022-09-13T03:08:50;8.63;;;8.23;;
17449;SDS011;8842;51.244;7.102;2022-09-13T03:14:00;8.80;;;8.40;;
17449;SDS011;8842;51.244;7.102;2022-09-13T03:24:46;8.90;;;8.50;;
17449;SDS011;8842;51.244;7.102;2022-09-13T03:30:01;9.10;;;8.60;;
17449;SDS011;8842;51.244;7.102;2022-09-13T03:35:11;30.80;;;9.30;;
17449;SDS011;8842;51.244;7.102;2022-09-13T03:40:30;9.20;;;8.60;;
17449;SDS011;8842;51.244;7.102;2022-09-13T03:45:39;8.70;;;8.30;;
17449;SDS011;8842;51.244;7.102;2022-09-13T03:50:52;8.70;;;8.30;;
17449;SDS011;8842;51.244;7.102;2022-09-13T04:01:08;9.40;;;8.90;;
17449;SDS011;8842;51.244;7.102;2022-09-13T04:06:12;8.70;;;8.30;;
17449;SDS011;8842;51.244;7.102;2022-09-13T04:11:24;8.90;;;8.50;;
17449;SDS011;8842;51.244;7.102;2022-09-13T04:16:28;8.40;;;8.00;;
17449;SDS011;8842;51.244;7.102;2022-09-13T04:21:40;8.60;;;8.20;;
17449;SDS011;8842;51.244;7.102;2022-09-13T04:31:59;8.87;;;8.43;;
17449;SDS011;8842;51.244;7.102;2022-09-13T04:37:03;9.53;;;9.00;;
17449;SDS011;8842;51.244;7.102;2022-09-13T04:47:18;8.60;;;8.20;;
17449;SDS011;8842;51.244;7.102;2022-09-13T04:57:34;8.30;;;7.90;;
17449;SDS011;8842;51.244;7.102;2022-09-13T05:02:38;9.13;;;8.63;;
17449;SDS011;8842;51.244;7.102;2022-09-13T05:07:50;8.70;;;8.30;;
17449;SDS011;8842;51.244;7.102;2022-09-13T05:12:55;8.80;;;8.40;;
17449;SDS011;8842;51.244;7.102;2022-09-13T05:23:10;8.87;;;8.47;;
17449;SDS011;8842;51.244;7.102;2022-09-13T05:33:25;9.47;;;8.97;;
17449;SDS011;8842;51.244;7.102;2022-09-13T05:38:31;9.40;;;8.90;;
17449;SDS011;8842;51.244;7.102;2022-09-13T05:43:43;9.10;;;8.70;;
17449;SDS011;8842;51.244;7.102;2022-09-13T05:54:01;9.37;;;8.87;;
17449;SDS011;8842;51.244;7.102;2022-09-13T06:04:16;8.60;;;8.20;;
17449;SDS011;8842;51.244;7.102;2022-09-13T06:09:20;8.90;;;8.50;;
17449;SDS011;8842;51.244;7.102;2022-09-13T06:14:24;8.70;;;8.30;;
17449;SDS011;8842;51.244;7.102;2022-09-13T06:24:39;9.30;;;8.80;;
17449;SDS011;8842;51.244;7.102;2022-09-13T06:34:57;9.03;;;8.63;;
17449;SDS011;8842;51.244;7.102;2022-09-13T06:45:13;9.27;;;8.77;;
17449;SDS011;8842;51.244;7.102;2022-09-13T06:55:31;8.83;;;8.33;;
17449;SDS011;8842;51.244;7.102;2022-09-13T07:05:48;8.80;;;8.40;;
17449;SDS011;8842;51.244;7.102;2022-09-13T07:10:56;8.83;;;8.43;;
17449;SDS011;8842;51.244;7.102;2022-09-13T07:21:11;9.20;;;8.80;;
17449;SDS011;8842;51.244;7.102;2022-09-13T07:31:28;9.40;;;8.90;;
17449;SDS011;8842;51.244;7.102;2022-09-13T07:36:34;9.23;;;8.77;;
17449;SDS011;8842;51.244;7.102;2022-09-13T07:46:49;9.43;;;8.93;;
17449;SDS011;8842;51.244;7.102;2022-09-13T07:57:05;9.30;;;8.80;;
17449;SDS011;8842;51.244;7.102;2022-09-13T08:07:20;9.20;;;8.70;;
17449;SDS011;8842;51.244;7.102;2022-09-13T08:12:24;9.50;;;9.00;;
17449;SDS011;8842;51.244;7.102;2022-09-13T08:22:39;9.90;;;9.40;;
17449;SDS011;8842;51.244;7.102;2022-09-13T08:32:54;10.08;;;9.58;;
17449;SDS011;8842;51.244;7.102;2022-09-13T08:37:59;10.38;;;9.78;;
17449;SDS011;8842;51.244;7.102;2022-09-13T08:48:15;9.45;;;8.95;;
17449;SDS011;8842;51.244;7.102;2022-09-13T08:58:41;9.40;;;8.90;;
17449;SDS011;8842;51.244;7.102;2022-09-13T09:09:06;9.20;;;8.70;;
17449;SDS011;8842;51.244;7.102;2022-09-13T09:19:27;9.98;;;9.48;;
17449;SDS011;8842;51.244;7.102;2022-09-13T09:29:49;10.50;;;10.00;;
17449;SDS011;8842;51.244;7.102;2022-09-13T09:40:11;10.95;;;10.35;;
17449;SDS011;8842;51.244;7.102;2022-09-13T09:45:19;11.20;;;10.60;;
17449;SDS011;8842;51.244;7.102;2022-09-13T09:50:36;11.60;;;11.00;;
17449;SDS011;8842;51.244;7.102;2022-09-13T09:55:53;12.30;;;11.60;;
17449;SDS011;8842;51.244;7.102;2022-09-13T10:06:13;13.18;;;11.10;;
17449;SDS011;8842;51.244;7.102;2022-09-13T10:11:22;12.30;;;11.38;;
17449;SDS011;8842;51.244;7.102;2022-09-13T10:16:40;11.50;;;10.90;;
17449;SDS011;8842;51.244;7.102;2022-09-13T10:26:55;12.20;;;11.50;;
17449;SDS011;8842;51.244;7.102;2022-09-13T10:37:13;12.00;;;11.35;;
17449;SDS011;8842;51.244;7.102;2022-09-13T10:42:21;11.53;;;10.93;;
17449;SDS011;8842;51.244;7.102;2022-09-13T10:47:30;12.33;;;11.63;;
17449;SDS011;8842;51.244;7.102;2022-09-13T10:52:42;12.00;;;11.40;;
17449;SDS011;8842;51.244;7.102;2022-09-13T10:57:55;11.15;;;10.55;;
17449;SDS011;8842;51.244;7.102;2022-09-13T11:08:36;11.70;;;11.10;;
17449;SDS011;8842;51.244;7.102;2022-09-13T11:14:01;12.25;;;11.55;;
17449;SDS011;8842;51.244;7.102;2022-09-13T11:24:34;10.15;;;9.65;;
17449;SDS011;8842;51.244;7.102;2022-09-13T11:35:19;12.63;;;11.93;;
17449;SDS011;8842;51.244;7.102;2022-09-13T11:40:33;12.25;;;11.53;;
17449;SDS011;8842;51.244;7.102;2022-09-13T11:45:41;11.90;;;11.30;;
17449;SDS011;8842;51.244;7.102;2022-09-13T11:50:56;12.43;;;11.68;;
17449;SDS011;8842;51.244;7.102;2022-09-13T12:01:16;11.57;;;10.98;;
17449;SDS011;8842;51.244;7.102;2022-09-13T12:06:30;10.65;;;10.08;;
17449;SDS011;8842;51.244;7.102;2022-09-13T12:16:49;12.30;;;11.38;;
17449;SDS011;8842;51.244;7.102;2022-09-13T12:27:08;12.53;;;11.30;;
17449;SDS011;8842;51.244;7.102;2022-09-13T12:37:31;11.73;;;11.12;;
17449;SDS011;8842;51.244;7.102;2022-09-13T12:42:50;11.28;;;10.68;;
17449;SDS011;8842;51.244;7.102;2022-09-13T12:48:15;12.00;;;11.35;;
17449;SDS011;8842;51.244;7.102;2022-09-13T12:58:51;12.98;;;11.95;;
17449;SDS011;8842;51.244;7.102;2022-09-13T13:09:20;11.18;;;10.58;;
17449;SDS011;8842;51.244;7.102;2022-09-13T13:19:38;11.18;;;10.58;;
17449;SDS011;8842;51.244;7.102;2022-09-13T13:41:06;11.68;;;10.90;;
17449;SDS011;8842;51.244;7.102;2022-09-13T13:46:26;11.33;;;10.70;;
17449;SDS011;8842;51.244;7.102;2022-09-13T13:56:47;10.88;;;10.18;;
17449;SDS011;8842;51.244;7.102;2022-09-13T14:07:05;10.80;;;10.20;;
17449;SDS011;8842;51.244;7.102;2022-09-13T14:12:28;10.63;;;10.03;;
17449;SDS011;8842;51.244;7.102;2022-09-13T14:17:51;10.72;;;10.13;;
17449;SDS011;8842;51.244;7.102;2022-09-13T14:28:21;10.43;;;9.83;;
17449;SDS011;8842;51.244;7.102;2022-09-13T14:38:37;10.15;;;9.35;;
17449;SDS011;8842;51.244;7.102;2022-09-13T14:48:56;10.40;;;9.80;;
17449;SDS011;8842;51.244;7.102;2022-09-13T14:59:14;10.80;;;10.20;;
17449;SDS011;8842;51.244;7.102;2022-09-13T15:09:33;11.45;;;10.85;;
17449;SDS011;8842;51.244;7.102;2022-09-13T15:14:39;11.22;;;10.63;;
17449;SDS011;8842;51.244;7.102;2022-09-13T15:24:58;10.35;;;9.75;;
17449;SDS011;8842;51.244;7.102;2022-09-13T15:30:05;10.32;;;9.73;;
17449;SDS011;8842;51.244;7.102;2022-09-13T15:35:21;11.10;;;10.40;;
17449;SDS011;8842;51.244;7.102;2022-09-13T15:40:40;11.30;;;10.70;;
17449;SDS011;8842;51.244;7.102;2022-09-13T15:45:46;11.68;;;11.08;;
17449;SDS011;8842;51.244;7.102;2022-09-13T15:51:08;12.00;;;11.40;;
17449;SDS011;8842;51.244;7.102;2022-09-13T15:56:14;10.15;;;9.65;;
17449;SDS011;8842;51.244;7.102;2022-09-13T16:06:32;11.00;;;10.40;;
17449;SDS011;8842;51.244;7.102;2022-09-13T16:11:36;11.88;;;11.28;;
17449;SDS011;8842;51.244;7.102;2022-09-13T16:21:51;11.55;;;10.95;;
17449;SDS011;8842;51.244;7.102;2022-09-13T16:32:06;12.13;;;11.43;;
17449;SDS011;8842;51.244;7.102;2022-09-13T16:37:12;12.25;;;11.48;;
17449;SDS011;8842;51.244;7.102;2022-09-13T16:47:28;11.78;;;11.18;;
17449;SDS011;8842;51.244;7.102;2022-09-13T16:57:46;11.95;;;11.33;;
17449;SDS011;8842;51.244;7.102;2022-09-13T17:08:05;11.53;;;10.93;;
17449;SDS011;8842;51.244;7.102;2022-09-13T17:18:20;10.60;;;10.00;;
17449;SDS011;8842;51.244;7.102;2022-09-13T17:28:35;10.80;;;10.20;;
17449;SDS011;8842;51.244;7.102;2022-09-13T17:38:54;11.30;;;10.60;;
17449;SDS011;8842;51.244;7.102;2022-09-13T17:49:09;10.82;;;10.23;;
17449;SDS011;8842;51.244;7.102;2022-09-13T17:59:25;11.30;;;10.18;;
17449;SDS011;8842;51.244;7.102;2022-09-13T18:09:40;10.40;;;9.90;;
17449;SDS011;8842;51.244;7.102;2022-09-13T18:19:56;9.80;;;9.30;;
17449;SDS011;8842;51.244;7.102;2022-09-13T18:30:11;10.18;;;9.30;;
17449;SDS011;8842;51.244;7.102;2022-09-13T18:40:27;9.90;;;9.40;;
17449;SDS011;8842;51.244;7.102;2022-09-13T18:45:31;10.30;;;9.80;;
17449;SDS011;8842;51.244;7.102;2022-09-13T18:55:46;11.10;;;10.40;;
17449;SDS011;8842;51.244;7.102;2022-09-13T19:06:10;10.90;;;10.30;;
17449;SDS011;8842;51.244;7.102;2022-09-13T19:11:16;9.10;;;8.60;;
17449;SDS011;8842;51.244;7.102;2022-09-13T19:21:32;9.83;;;9.30;;
17449;SDS011;8842;51.244;7.102;2022-09-13T19:31:47;10.63;;;10.10;;
17449;SDS011;8842;51.244;7.102;2022-09-13T19:36:53;10.60;;;10.10;;
17449;SDS011;8842;51.244;7.102;2022-09-13T19:47:10;10.85;;;10.25;;
17449;SDS011;8842;51.244;7.102;2022-09-13T19:57:25;10.50;;;9.90;;
17449;SDS011;8842;51.244;7.102;2022-09-13T20:07:42;10.10;;;9.60;;
17449;SDS011;8842;51.244;7.102;2022-09-13T20:12:46;11.07;;;10.47;;
17449;SDS011;8842;51.244;7.102;2022-09-13T20:23:03;13.60;;;12.70;;
17449;SDS011;8842;51.244;7.102;2022-09-13T20:33:24;13.43;;;12.73;;
17449;SDS011;8842;51.244;7.102;2022-09-13T20:38:29;13.83;;;13.03;;
17449;SDS011;8842;51.244;7.102;2022-09-13T20:48:44;14.30;;;13.50;;
17449;SDS011;8842;51.244;7.102;2022-09-13T20:59:02;15.30;;;14.40;;
17449;SDS011;8842;51.244;7.102;2022-09-13T21:09:18;15.10;;;14.30;;
17449;SDS011;8842;51.244;7.102;2022-09-13T21:14:30;15.43;;;14.50;;
17449;SDS011;8842;51.244;7.102;2022-09-13T21:24:49;15.00;;;14.13;;
17449;SDS011;8842;51.244;7.102;2022-09-13T21:35:12;14.90;;;14.10;;
17449;SDS011;8842;51.244;7.102;2022-09-13T21:40:16;14.77;;;13.97;;
17449;SDS011;8842;51.244;7.102;2022-09-13T21:45:37;15.30;;;14.50;;
17449;SDS011;8842;51.244;7.102;2022-09-13T21:55:57;15.37;;;14.57;;
17449;SDS011;8842;51.244;7.102;2022-09-13T22:06:22;14.13;;;13.43;;
17449;SDS011;8842;51.244;7.102;2022-09-13T22:16:46;13.27;;;12.57;;
17449;SDS011;8842;51.244;7.102;2022-09-13T22:27:05;12.90;;;12.20;;
17449;SDS011;8842;51.244;7.102;2022-09-13T22:37:23;15.00;;;14.20;;
17449;SDS011;8842;51.244;7.102;2022-09-13T22:47:46;15.10;;;14.30;;
17449;SDS011;8842;51.244;7.102;2022-09-13T22:58:04;13.60;;;12.90;;
17449;SDS011;8842;51.244;7.102;2022-09-13T23:08:22;13.20;;;12.50;;
17449;SDS011;8842;51.244;7.102;2022-09-13T23:18:40;13.10;;;12.40;;
17449;SDS011;8842;51.244;7.102;2022-09-13T23:28:56;13.27;;;12.57;;
17449;SDS011;8842;51.244;7.102;2022-09-13T23:39:14;14.50;;;13.80;;
17449;SDS011;8842;51.244;7.102;2022-09-13T23:49:30;13.50;;;12.80;;
17449;SDS011;8842;51.244;7.102;2022-09-13T23:59:47;12.20;;;11.60;;
